createdAt,value
2023-03-31T00:01:33.692Z,3.25
2023-03-31T00:04:04.412Z,3.19
2023-03-31T00:06:38.804Z,3.13
2023-03-31T00:09:07.030Z,3.10
2023-03-31T00:11:34.537Z,3.03
2023-03-31T00:14:02.174Z,2.98
2023-03-31T00:16:29.942Z,2.94
2023-03-31T00:18:57.518Z,2.92
2023-03-31T00:21:25.542Z,2.91
2023-03-31T00:23:54.143Z,2.92
2023-03-31T00:26:30.230Z,2.90
2023-03-31T00:28:57.885Z,2.90
2023-03-31T00:31:26.884Z,2.88
2023-03-31T00:33:55.331Z,2.86
2023-03-31T00:36:29.442Z,2.84
2023-03-31T00:39:06.839Z,2.81
2023-03-31T00:41:35.312Z,2.80
2023-03-31T00:44:12.599Z,2.80
2023-03-31T00:46:56.746Z,2.81
2023-03-31T00:49:44.682Z,2.84
2023-03-31T00:52:22.368Z,2.85
2023-03-31T00:54:51.408Z,2.85
2023-03-31T00:57:18.997Z,2.86
2023-03-31T00:59:49.082Z,2.86
2023-03-31T01:02:17.469Z,2.86
2023-03-31T01:04:56.983Z,2.85
2023-03-31T01:07:33.339Z,2.80
2023-03-31T01:10:01.217Z,2.75
2023-03-31T01:12:29.587Z,2.71
2023-03-31T01:14:57.036Z,2.71
2023-03-31T01:17:24.560Z,2.72
2023-03-31T01:19:53.008Z,2.72
2023-03-31T01:22:37.586Z,2.73
2023-03-31T01:25:14.142Z,2.74
2023-03-31T01:28:01.527Z,2.75
2023-03-31T01:30:52.087Z,2.74
2023-03-31T01:33:24.905Z,2.73
2023-03-31T01:35:58.086Z,2.71
2023-03-31T01:38:26.785Z,2.70
2023-03-31T01:40:55.266Z,2.66
2023-03-31T01:43:33.575Z,2.62
2023-03-31T01:46:20.812Z,2.53
2023-03-31T01:49:03.415Z,2.41
2023-03-31T01:51:30.992Z,2.27
2023-03-31T01:54:17.212Z,2.11
2023-03-31T01:57:08.022Z,1.95
2023-03-31T01:59:40.848Z,1.80
2023-03-31T02:02:10.548Z,1.74
2023-03-31T02:04:41.802Z,1.75
2023-03-31T02:07:13.281Z,1.81
2023-03-31T02:09:41.956Z,1.90
2023-03-31T02:12:10.529Z,1.98
2023-03-31T02:14:39.412Z,2.02
2023-03-31T02:17:33.622Z,2.07
2023-03-31T02:20:05.852Z,2.15
2023-03-31T02:22:33.975Z,2.20
2023-03-31T02:25:01.698Z,2.23
2023-03-31T02:27:35.842Z,2.28
2023-03-31T02:30:03.882Z,2.31
2023-03-31T02:32:42.722Z,2.35
2023-03-31T02:35:12.116Z,2.39
2023-03-31T02:37:39.459Z,2.42
2023-03-31T02:40:14.394Z,2.42
2023-03-31T02:42:42.057Z,2.36
2023-03-31T02:45:32.561Z,2.31
2023-03-31T02:48:00.740Z,2.29
2023-03-31T02:50:29.520Z,2.31
2023-03-31T02:53:00.293Z,2.34
2023-03-31T02:55:31.015Z,2.34
2023-03-31T02:58:26.491Z,2.30
2023-03-31T03:01:07.764Z,2.28
2023-03-31T03:04:11.678Z,2.22
2023-03-31T03:06:44.363Z,2.03
2023-03-31T03:09:36.526Z,1.83
2023-03-31T03:12:06.624Z,1.65
2023-03-31T03:14:35.446Z,1.50
2023-03-31T03:17:03.011Z,1.42
2023-03-31T03:19:30.635Z,1.39
2023-03-31T03:21:58.288Z,1.35
2023-03-31T03:24:28.936Z,1.33
2023-03-31T03:26:58.777Z,1.35
2023-03-31T03:29:27.210Z,1.40
2023-03-31T03:31:54.973Z,1.45
2023-03-31T03:34:25.198Z,1.34
2023-03-31T03:36:52.564Z,1.22
2023-03-31T03:39:20.731Z,1.13
2023-03-31T03:41:47.976Z,1.05
2023-03-31T03:44:15.588Z,0.95
2023-03-31T03:46:43.053Z,0.85
2023-03-31T03:49:12.090Z,0.81
2023-03-31T03:51:39.778Z,0.79
2023-03-31T03:54:07.104Z,0.76
2023-03-31T03:56:36.301Z,0.70
2023-03-31T03:59:03.761Z,0.75
2023-03-31T04:01:31.328Z,0.85
2023-03-31T04:04:00.109Z,0.92
2023-03-31T04:06:27.553Z,0.96
2023-03-31T04:08:55.113Z,0.98
2023-03-31T04:11:22.677Z,0.99
2023-03-31T04:13:50.436Z,0.99
2023-03-31T04:16:18.182Z,1.01
2023-03-31T04:18:45.743Z,1.03
2023-03-31T04:21:14.953Z,1.03
2023-03-31T04:23:46.090Z,1.02
2023-03-31T04:26:14.178Z,1.06
2023-03-31T04:28:50.229Z,1.09
2023-03-31T04:31:24.780Z,1.10
2023-03-31T04:33:52.922Z,1.14
2023-03-31T04:36:26.581Z,1.22
2023-03-31T04:38:54.420Z,1.29
2023-03-31T04:41:24.327Z,1.36
2023-03-31T04:43:51.810Z,1.42
2023-03-31T04:46:19.570Z,1.52
2023-03-31T04:48:47.700Z,1.65
2023-03-31T04:51:16.068Z,1.71
2023-03-31T04:53:47.931Z,1.73
2023-03-31T04:56:17.155Z,1.73
2023-03-31T04:58:45.811Z,1.73
2023-03-31T05:01:17.925Z,1.81
2023-03-31T05:03:47.391Z,1.89
2023-03-31T05:06:15.267Z,1.94
2023-03-31T05:08:43.225Z,2.00
2023-03-31T05:11:13.517Z,2.03
2023-03-31T05:13:42.034Z,2.07
2023-03-31T05:16:10.589Z,2.12
2023-03-31T05:18:38.178Z,2.19
2023-03-31T05:21:12.592Z,2.25
2023-03-31T05:23:39.968Z,2.36
2023-03-31T05:26:08.389Z,2.50
2023-03-31T05:28:36.500Z,2.66
2023-03-31T05:31:04.271Z,2.83
2023-03-31T05:33:32.648Z,2.99
2023-03-31T05:36:00.488Z,3.15
2023-03-31T05:38:36.048Z,3.31
2023-03-31T05:45:53.933Z,3.73
2023-03-31T05:48:23.214Z,3.87
2023-03-31T05:51:06.698Z,3.96
2023-03-31T05:53:39.030Z,4.05
2023-03-31T06:05:56.306Z,4.47
2023-03-31T06:08:26.624Z,4.58
2023-03-31T06:17:13.270Z,4.77
2023-03-31T06:23:29.495Z,4.95
2023-03-31T06:30:11.510Z,5.25
2023-03-31T06:32:59.586Z,5.32
2023-03-31T06:39:06.363Z,5.57
2023-03-31T06:44:58.923Z,5.87
2023-03-31T06:47:26.504Z,6.07
2023-03-31T06:49:54.034Z,6.29
2023-03-31T06:52:21.658Z,6.42
2023-03-31T06:54:49.164Z,6.53
2023-03-31T06:57:16.528Z,6.63
2023-03-31T06:59:44.470Z,6.77
2023-03-31T07:02:12.102Z,6.89
2023-03-31T07:04:40.197Z,6.97
2023-03-31T07:07:07.763Z,6.99
2023-03-31T07:09:35.114Z,7.00
2023-03-31T07:12:06.257Z,7.01
2023-03-31T07:14:34.534Z,7.13
2023-03-31T07:17:02.095Z,7.23
2023-03-31T07:19:31.782Z,7.16
2023-03-31T07:21:59.292Z,7.16
2023-03-31T07:24:26.612Z,7.17
2023-03-31T07:26:53.992Z,7.11
2023-03-31T07:29:21.521Z,7.07
2023-03-31T07:31:49.386Z,7.00
2023-03-31T07:34:16.947Z,6.96
2023-03-31T07:36:44.544Z,6.96
2023-03-31T07:39:11.963Z,7.00
2023-03-31T07:41:40.256Z,7.09
2023-03-31T07:44:07.596Z,7.22
2023-03-31T07:46:35.085Z,7.30
2023-03-31T07:49:02.980Z,7.42
2023-03-31T07:51:30.883Z,7.54
2023-03-31T07:53:58.266Z,7.57
2023-03-31T07:56:32.864Z,7.58
2023-03-31T07:59:00.420Z,7.63
2023-03-31T08:01:29.260Z,7.73
2023-03-31T08:03:58.705Z,7.82
2023-03-31T08:06:26.594Z,7.90
2023-03-31T08:08:54.037Z,8.00
2023-03-31T08:11:23.027Z,7.97
2023-03-31T08:13:51.617Z,7.92
2023-03-31T08:16:19.327Z,7.93
2023-03-31T08:18:48.268Z,7.97
2023-03-31T08:21:16.270Z,8.07
2023-03-31T08:23:43.693Z,8.04
2023-03-31T08:26:13.151Z,7.97
2023-03-31T08:28:41.473Z,7.96
2023-03-31T08:31:10.223Z,7.92
2023-03-31T08:33:37.922Z,7.90
2023-03-31T08:36:08.435Z,7.97
2023-03-31T08:38:41.432Z,8.04
2023-03-31T08:41:17.491Z,8.10
2023-03-31T08:43:45.245Z,8.08
2023-03-31T08:46:14.099Z,8.05
2023-03-31T08:48:48.400Z,8.02
2023-03-31T08:51:21.449Z,7.93
2023-03-31T08:53:50.649Z,7.75
2023-03-31T08:56:19.573Z,7.62
2023-03-31T08:58:49.350Z,7.57
2023-03-31T09:01:23.210Z,7.59
2023-03-31T09:03:50.709Z,7.61
2023-03-31T09:06:22.412Z,7.68
2023-03-31T09:08:49.931Z,7.77
2023-03-31T09:11:22.413Z,7.82
2023-03-31T09:13:55.290Z,7.78
2023-03-31T09:16:33.455Z,7.72
2023-03-31T09:19:11.602Z,7.75
2023-03-31T09:21:49.611Z,7.75
2023-03-31T09:24:34.081Z,7.68
2023-03-31T09:27:02.001Z,7.63
2023-03-31T09:29:40.945Z,7.74
2023-03-31T09:32:24.958Z,7.92
2023-03-31T09:34:52.872Z,8.09
2023-03-31T09:37:19.707Z,8.13
2023-03-31T09:39:47.211Z,8.15
2023-03-31T09:42:18.632Z,8.19
2023-03-31T09:44:49.451Z,8.20
2023-03-31T09:47:19.266Z,8.22
2023-03-31T09:49:54.156Z,8.21
2023-03-31T09:52:32.138Z,8.24
2023-03-31T09:55:38.210Z,8.29
2023-03-31T09:58:07.741Z,8.33
2023-03-31T10:00:35.733Z,8.35
2023-03-31T10:03:06.816Z,8.37
2023-03-31T10:05:37.543Z,8.38
2023-03-31T10:08:11.959Z,8.36
2023-03-31T10:10:40.000Z,8.41
2023-03-31T10:13:13.906Z,8.54
2023-03-31T10:15:42.370Z,8.68
2023-03-31T10:18:16.768Z,8.84
2023-03-31T10:20:49.589Z,8.93
2023-03-31T10:23:23.198Z,9.00
2023-03-31T10:25:50.545Z,8.95
2023-03-31T10:28:19.433Z,8.90
2023-03-31T10:30:54.582Z,8.87
2023-03-31T10:33:24.672Z,8.82
2023-03-31T10:35:56.383Z,8.79
2023-03-31T10:38:25.951Z,8.81
2023-03-31T10:40:56.444Z,8.84
2023-03-31T10:43:34.278Z,8.83
2023-03-31T10:46:01.538Z,8.83
2023-03-31T10:48:30.663Z,8.87
2023-03-31T10:51:18.926Z,8.91
2023-03-31T10:53:48.021Z,9.00
2023-03-31T10:56:28.422Z,9.08
2023-03-31T10:59:05.191Z,9.15
2023-03-31T11:01:37.299Z,9.21
2023-03-31T11:04:25.202Z,9.21
2023-03-31T11:06:56.136Z,9.22
2023-03-31T11:09:39.051Z,9.29
2023-03-31T11:12:21.061Z,9.34
2023-03-31T11:14:53.421Z,9.37
2023-03-31T11:17:31.226Z,9.35
2023-03-31T11:19:58.787Z,9.38
2023-03-31T11:22:39.034Z,9.50
2023-03-31T11:25:06.533Z,9.66
2023-03-31T11:27:41.949Z,9.84
2023-03-31T11:30:22.411Z,10.01
2023-03-31T11:32:56.338Z,10.15
2023-03-31T11:35:35.477Z,10.24
2023-03-31T11:38:04.118Z,10.29
2023-03-31T11:40:35.162Z,10.30
2023-03-31T11:43:07.335Z,10.35
2023-03-31T11:45:37.037Z,10.41
2023-03-31T11:48:10.803Z,10.45
2023-03-31T11:50:39.362Z,10.47
2023-03-31T11:53:15.824Z,10.38
2023-03-31T11:55:43.393Z,10.31
2023-03-31T11:58:12.675Z,10.28
2023-03-31T12:00:41.545Z,10.29
2023-03-31T12:03:15.854Z,10.35
2023-03-31T12:05:51.429Z,10.41
2023-03-31T12:08:22.891Z,10.46
2023-03-31T12:10:51.132Z,10.45
2023-03-31T12:13:36.118Z,10.43
2023-03-31T12:16:05.957Z,10.46
2023-03-31T12:18:42.681Z,10.49
2023-03-31T12:21:11.673Z,10.44
2023-03-31T12:23:42.832Z,10.41
2023-03-31T12:26:16.317Z,10.37
2023-03-31T12:28:44.828Z,10.37
2023-03-31T12:31:15.773Z,10.41
2023-03-31T12:33:45.854Z,10.43
2023-03-31T12:36:15.857Z,10.42
2023-03-31T12:38:53.466Z,10.42
2023-03-31T12:41:30.242Z,10.44
2023-03-31T12:44:16.583Z,10.44
2023-03-31T12:46:53.245Z,10.50
2023-03-31T12:49:23.740Z,10.62
2023-03-31T12:51:54.270Z,10.71
2023-03-31T12:54:40.195Z,10.73
2023-03-31T12:57:07.465Z,10.64
2023-03-31T12:59:35.724Z,10.57
2023-03-31T13:02:09.381Z,10.57
2023-03-31T13:04:37.363Z,10.61
2023-03-31T13:07:14.436Z,10.61
2023-03-31T13:09:52.648Z,10.63
2023-03-31T13:12:21.745Z,10.66
2023-03-31T13:14:51.453Z,10.70
2023-03-31T13:17:29.623Z,10.72
2023-03-31T13:20:15.144Z,10.75
2023-03-31T13:22:43.953Z,10.76
2023-03-31T13:25:30.037Z,10.76
2023-03-31T13:27:58.600Z,10.79
2023-03-31T13:30:46.639Z,10.83
2023-03-31T13:33:21.267Z,10.83
2023-03-31T13:35:56.216Z,10.81
2023-03-31T13:38:24.166Z,10.84
2023-03-31T13:41:02.836Z,10.86
2023-03-31T13:43:50.311Z,10.87
2023-03-31T13:46:20.592Z,10.87
2023-03-31T13:48:55.259Z,10.87
2023-03-31T13:51:29.578Z,10.87
2023-03-31T13:54:16.384Z,10.88
2023-03-31T13:56:43.803Z,10.93
2023-03-31T13:59:14.914Z,10.96
2023-03-31T14:01:57.259Z,11.02
2023-03-31T14:04:28.532Z,11.06
2023-03-31T14:06:57.284Z,11.08
2023-03-31T14:09:29.900Z,11.06
2023-03-31T14:11:58.827Z,11.04
2023-03-31T14:14:27.110Z,11.02
2023-03-31T14:17:00.256Z,10.98
2023-03-31T14:19:50.453Z,10.97
2023-03-31T14:22:29.274Z,10.97
2023-03-31T14:25:06.184Z,10.96
2023-03-31T14:27:39.223Z,10.95
2023-03-31T14:30:13.255Z,10.98
2023-03-31T14:33:06.848Z,10.99
2023-03-31T14:35:38.358Z,10.97
2023-03-31T14:38:06.990Z,10.97
2023-03-31T14:40:34.574Z,10.97
2023-03-31T14:43:02.278Z,10.98
2023-03-31T14:45:33.930Z,10.99
2023-03-31T14:48:16.033Z,10.98
2023-03-31T14:50:44.214Z,10.99
2023-03-31T14:53:15.793Z,11.01
2023-03-31T14:55:57.999Z,10.98
2023-03-31T14:58:30.237Z,10.95
2023-03-31T15:00:57.312Z,11.01
2023-03-31T15:03:27.764Z,11.05
2023-03-31T15:05:56.490Z,11.05
2023-03-31T15:08:23.782Z,11.07
2023-03-31T15:11:02.405Z,11.06
2023-03-31T15:13:56.485Z,11.01
2023-03-31T15:16:31.292Z,11.00
2023-03-31T15:19:04.769Z,11.03
2023-03-31T15:21:33.762Z,11.05
2023-03-31T15:24:03.125Z,11.06
2023-03-31T15:26:40.516Z,11.08
2023-03-31T15:29:09.956Z,11.09
2023-03-31T15:31:40.486Z,11.10
2023-03-31T15:34:12.207Z,11.13
2023-03-31T15:36:40.719Z,11.10
2023-03-31T15:39:08.790Z,11.06
2023-03-31T15:41:37.472Z,11.05
2023-03-31T15:44:06.150Z,11.03
2023-03-31T15:46:43.544Z,10.99
2023-03-31T15:49:20.609Z,10.96
2023-03-31T15:51:48.189Z,10.98
2023-03-31T15:54:32.855Z,11.01
2023-03-31T15:57:01.586Z,10.97
2023-03-31T15:59:37.973Z,10.90
2023-03-31T16:02:13.547Z,10.83
2023-03-31T16:04:41.238Z,10.76
2023-03-31T16:07:15.213Z,10.65
2023-03-31T16:09:47.999Z,10.56
2023-03-31T16:12:31.530Z,10.46
2023-03-31T16:15:03.186Z,10.37
2023-03-31T16:17:32.473Z,10.28
2023-03-31T16:20:06.723Z,10.19
2023-03-31T16:22:36.775Z,10.13
2023-03-31T16:25:07.861Z,10.08
2023-03-31T16:27:54.366Z,10.05
2023-03-31T16:30:22.952Z,10.00
2023-03-31T16:33:07.443Z,9.95
2023-03-31T16:35:42.448Z,9.89
2023-03-31T16:38:10.750Z,9.84
2023-03-31T16:40:38.827Z,9.80
2023-03-31T16:43:16.072Z,9.74
2023-03-31T16:45:44.664Z,9.68
2023-03-31T16:48:17.664Z,9.62
2023-03-31T16:50:51.045Z,9.57
2023-03-31T16:53:19.568Z,9.52
2023-03-31T16:55:46.980Z,9.47
2023-03-31T16:58:16.225Z,9.42
2023-03-31T17:00:45.290Z,9.37
2023-03-31T17:03:15.126Z,9.31
2023-03-31T17:05:44.070Z,9.28
2023-03-31T17:08:11.491Z,9.25
2023-03-31T17:10:39.492Z,9.24
2023-03-31T17:13:07.880Z,9.22
2023-03-31T17:15:36.032Z,9.19
2023-03-31T17:18:07.665Z,9.17
2023-03-31T17:20:36.154Z,9.16
2023-03-31T17:23:03.771Z,9.14
2023-03-31T17:25:31.545Z,9.13
2023-03-31T17:28:00.296Z,9.12
2023-03-31T17:30:28.189Z,9.09
2023-03-31T17:32:56.195Z,9.07
2023-03-31T17:35:24.139Z,9.06
2023-03-31T17:37:55.083Z,9.04
2023-03-31T17:40:23.437Z,9.02
2023-03-31T17:42:52.214Z,9.00
2023-03-31T17:45:19.450Z,8.97
2023-03-31T17:47:48.064Z,8.95
2023-03-31T17:50:15.724Z,8.94
2023-03-31T17:52:43.353Z,8.93
2023-03-31T17:55:12.350Z,8.91
2023-03-31T17:57:40.223Z,8.88
2023-03-31T18:00:09.352Z,8.86
2023-03-31T18:02:40.304Z,8.84
2023-03-31T18:05:08.735Z,8.82
2023-03-31T18:07:36.698Z,8.79
2023-03-31T18:10:04.839Z,8.77
2023-03-31T18:12:37.654Z,8.75
2023-03-31T18:15:06.674Z,8.75
2023-03-31T18:17:33.981Z,8.72
2023-03-31T18:20:01.553Z,8.71
2023-03-31T18:22:29.521Z,8.70
2023-03-31T18:24:57.078Z,8.70
2023-03-31T18:27:25.240Z,8.69
2023-03-31T18:29:53.685Z,8.67
2023-03-31T18:32:21.368Z,8.65
2023-03-31T18:34:48.958Z,8.66
2023-03-31T18:37:16.724Z,8.64
2023-03-31T18:39:44.276Z,8.63
2023-03-31T18:42:11.735Z,8.58
2023-03-31T18:44:39.433Z,8.55
2023-03-31T18:47:08.753Z,8.54
2023-03-31T18:49:38.333Z,8.54
2023-03-31T18:52:05.892Z,8.51
2023-03-31T18:54:34.343Z,8.49
2023-03-31T18:57:01.971Z,8.47
2023-03-31T18:59:29.375Z,8.46
2023-03-31T19:01:57.277Z,8.45
2023-03-31T19:04:24.886Z,8.41
2023-03-31T19:06:52.894Z,8.39
2023-03-31T19:09:22.366Z,8.37
2023-03-31T19:11:49.818Z,8.34
2023-03-31T19:14:17.683Z,8.30
2023-03-31T19:17:00.408Z,8.23
2023-03-31T19:19:36.397Z,8.18
2023-03-31T19:22:04.691Z,8.14
2023-03-31T19:24:31.964Z,8.12
2023-03-31T19:27:02.313Z,8.10
2023-03-31T19:29:31.600Z,8.07
2023-03-31T19:31:59.426Z,8.03
2023-03-31T19:34:27.150Z,8.01
2023-03-31T19:36:54.800Z,7.98
2023-03-31T19:39:22.267Z,7.94
2023-03-31T19:41:49.835Z,7.93
2023-03-31T19:44:17.781Z,7.91
2023-03-31T19:46:47.625Z,7.86
2023-03-31T19:49:15.558Z,7.79
2023-03-31T19:51:43.019Z,7.73
2023-03-31T19:54:10.807Z,7.67
2023-03-31T19:56:38.650Z,7.62
2023-03-31T19:59:06.409Z,7.58
2023-03-31T20:01:34.039Z,7.54
2023-03-31T20:04:05.688Z,7.50
2023-03-31T20:06:33.999Z,7.47
2023-03-31T20:09:01.659Z,7.45
2023-03-31T20:11:31.535Z,7.43
2023-03-31T20:13:59.856Z,7.45
2023-03-31T20:16:27.951Z,7.47
2023-03-31T20:19:01.000Z,7.45
2023-03-31T20:21:29.118Z,7.42
2023-03-31T20:23:57.001Z,7.40
2023-03-31T20:26:25.837Z,7.36
2023-03-31T20:28:54.461Z,7.31
2023-03-31T20:31:39.678Z,7.26
2023-03-31T20:34:12.049Z,7.21
2023-03-31T20:36:40.150Z,7.16
2023-03-31T20:39:07.613Z,7.11
2023-03-31T20:41:36.799Z,7.08
2023-03-31T20:44:04.869Z,7.06
2023-03-31T20:46:32.514Z,7.04
2023-03-31T20:49:01.434Z,7.00
2023-03-31T20:51:29.915Z,6.99
2023-03-31T20:53:57.536Z,6.98
2023-03-31T20:56:26.146Z,6.97
2023-03-31T20:58:54.618Z,6.98
2023-03-31T21:01:22.239Z,6.98
2023-03-31T21:03:51.472Z,7.00
2023-03-31T21:06:20.264Z,7.03
2023-03-31T21:08:50.703Z,7.04
2023-03-31T21:11:22.272Z,7.02
2023-03-31T21:13:50.314Z,6.98
2023-03-31T21:16:18.204Z,6.96
2023-03-31T21:18:46.271Z,6.95
2023-03-31T21:21:15.077Z,6.90
2023-03-31T21:23:42.677Z,6.87
2023-03-31T21:26:11.284Z,6.84
2023-03-31T21:28:38.891Z,6.86
2023-03-31T21:31:07.536Z,6.86
2023-03-31T21:33:37.946Z,6.85
2023-03-31T21:36:06.237Z,6.84
2023-03-31T21:38:35.898Z,6.84
2023-03-31T21:41:04.440Z,6.84
2023-03-31T21:43:33.212Z,6.80
2023-03-31T21:46:00.913Z,6.79
2023-03-31T21:48:28.381Z,6.78
2023-03-31T21:50:55.993Z,6.77
2023-03-31T21:53:24.176Z,6.76
2023-03-31T21:55:54.695Z,6.75
2023-03-31T21:58:28.022Z,6.74
2023-03-31T22:00:57.125Z,6.78
2023-03-31T22:03:28.323Z,6.82
2023-03-31T22:05:56.395Z,6.83
2023-03-31T22:08:23.861Z,6.85
2023-03-31T22:10:59.707Z,6.87
2023-03-31T22:13:27.894Z,6.87
2023-03-31T22:15:55.705Z,6.90
2023-03-31T22:18:23.241Z,6.94
2023-03-31T22:20:50.805Z,6.92
2023-03-31T22:23:20.166Z,6.91
2023-03-31T22:25:47.784Z,6.88
2023-03-31T22:28:15.893Z,6.85
2023-03-31T22:30:44.864Z,6.84
2023-03-31T22:33:13.479Z,6.81
2023-03-31T22:35:40.916Z,6.78
2023-03-31T22:38:11.536Z,6.77
2023-03-31T22:40:39.128Z,6.79
2023-03-31T22:43:06.477Z,6.77
2023-03-31T22:45:37.302Z,6.74
2023-03-31T22:48:06.264Z,6.72
2023-03-31T22:50:33.852Z,6.73
2023-03-31T22:53:01.623Z,6.74
2023-03-31T22:55:29.286Z,6.75
2023-03-31T22:57:56.878Z,6.77
2023-03-31T23:00:24.419Z,6.78
2023-03-31T23:02:52.249Z,6.79
2023-03-31T23:05:21.359Z,6.81
2023-03-31T23:07:50.497Z,6.80
2023-03-31T23:10:17.909Z,6.77
2023-03-31T23:12:45.283Z,6.77
2023-03-31T23:15:13.438Z,6.78
2023-03-31T23:17:40.894Z,6.78
2023-03-31T23:20:11.328Z,6.79
2023-03-31T23:22:39.493Z,6.77
2023-03-31T23:25:07.401Z,6.80
2023-03-31T23:27:35.058Z,6.83
2023-03-31T23:30:03.528Z,6.82
2023-03-31T23:32:37.305Z,6.81
2023-03-31T23:35:07.528Z,6.78
2023-03-31T23:37:35.619Z,6.76
2023-03-31T23:40:04.384Z,6.74
2023-03-31T23:42:31.841Z,6.70
2023-03-31T23:44:59.505Z,6.66
2023-03-31T23:47:27.402Z,6.66
2023-03-31T23:49:56.667Z,6.70
2023-03-31T23:52:24.531Z,6.73
2023-03-31T23:54:51.720Z,6.78
2023-03-31T23:57:20.720Z,6.80
2023-03-31T23:59:50.181Z,6.83
